createdAt,value
2023-05-14T00:02:41.148Z,6.47
2023-05-14T00:05:44.101Z,6.50
2023-05-14T00:08:46.560Z,7.00
2023-05-14T00:11:49.499Z,7.15
2023-05-14T00:14:52.651Z,6.40
2023-05-14T00:17:55.432Z,6.87
2023-05-14T00:20:57.964Z,7.37
2023-05-14T00:24:00.794Z,7.32
2023-05-14T00:27:03.884Z,7.50
2023-05-14T00:30:07.293Z,7.95
2023-05-14T00:33:10.100Z,7.37
2023-05-14T00:36:12.878Z,7.75
2023-05-14T00:39:15.350Z,7.20
2023-05-14T00:42:18.198Z,7.78
2023-05-14T00:45:20.917Z,7.00
2023-05-14T00:48:24.423Z,6.72
2023-05-14T00:51:27.049Z,7.18
2023-05-14T00:54:30.583Z,7.07
2023-05-14T00:57:34.828Z,6.85
2023-05-14T01:00:38.999Z,6.40
2023-05-14T01:03:42.421Z,6.15
2023-05-14T01:07:00.600Z,6.93
2023-05-14T01:10:17.263Z,6.30
2023-05-14T01:13:33.915Z,6.20
2023-05-14T01:16:38.915Z,6.22
2023-05-14T01:19:43.047Z,6.40
2023-05-14T01:22:45.725Z,6.10
2023-05-14T01:25:48.741Z,5.68
2023-05-14T01:28:52.876Z,6.30
2023-05-14T01:31:57.506Z,6.03
2023-05-14T01:35:01.742Z,6.32
2023-05-14T01:38:08.098Z,6.45
2023-05-14T01:41:10.792Z,6.65
2023-05-14T01:44:14.154Z,6.28
2023-05-14T01:47:16.708Z,6.10
2023-05-14T01:50:19.732Z,6.28
2023-05-14T01:53:22.222Z,6.62
2023-05-14T01:56:25.875Z,6.60
2023-05-14T01:59:29.871Z,6.22
2023-05-14T02:02:32.911Z,6.68
2023-05-14T02:05:35.690Z,6.40
2023-05-14T02:08:38.135Z,6.25
2023-05-14T02:11:40.901Z,6.47
2023-05-14T02:14:43.738Z,6.47
2023-05-14T02:17:46.506Z,6.37
2023-05-14T02:20:49.234Z,6.37
2023-05-14T02:23:52.869Z,6.47
2023-05-14T02:26:56.189Z,6.07
2023-05-14T02:30:00.836Z,6.60
2023-05-14T02:33:03.929Z,6.03
2023-05-14T02:36:07.116Z,5.90
2023-05-14T02:39:09.901Z,6.20
2023-05-14T02:42:12.499Z,6.00
2023-05-14T02:45:15.354Z,5.90
2023-05-14T02:48:17.796Z,5.93
2023-05-14T02:51:21.572Z,5.97
2023-05-14T02:54:24.160Z,5.87
2023-05-14T02:57:26.936Z,5.80
2023-05-14T03:00:29.691Z,5.65
2023-05-14T03:03:32.931Z,5.60
2023-05-14T03:06:36.127Z,5.70
2023-05-14T03:09:38.905Z,6.10
2023-05-14T03:12:41.768Z,5.75
2023-05-14T03:15:44.791Z,5.87
2023-05-14T03:18:47.292Z,5.53
2023-05-14T03:21:50.269Z,5.78
2023-05-14T03:24:53.005Z,6.12
2023-05-14T03:27:55.772Z,5.68
2023-05-14T03:30:58.413Z,5.57
2023-05-14T03:34:01.334Z,5.30
2023-05-14T03:37:04.035Z,4.97
2023-05-14T03:40:07.574Z,5.53
2023-05-14T03:43:11.756Z,5.20
2023-05-14T03:46:15.532Z,5.47
2023-05-14T03:49:18.081Z,5.32
2023-05-14T03:52:20.926Z,5.60
2023-05-14T03:55:23.585Z,5.18
2023-05-14T03:58:26.331Z,5.00
2023-05-14T04:01:28.957Z,5.32
2023-05-14T04:04:33.736Z,5.30
2023-05-14T04:07:37.873Z,5.32
2023-05-14T04:10:40.688Z,4.95
2023-05-14T04:13:43.231Z,4.90
2023-05-14T04:16:46.593Z,4.90
2023-05-14T04:19:49.147Z,4.70
2023-05-14T04:22:52.072Z,4.12
2023-05-14T04:25:54.585Z,4.37
2023-05-14T04:28:58.273Z,4.30
2023-05-14T04:32:00.919Z,4.70
2023-05-14T04:35:05.037Z,4.55
2023-05-14T04:38:07.513Z,4.78
2023-05-14T04:41:10.475Z,4.05
2023-05-14T04:44:13.075Z,4.07
2023-05-14T04:47:15.797Z,4.05
2023-05-14T04:50:18.600Z,3.75
2023-05-14T04:53:21.365Z,3.92
2023-05-14T04:56:23.847Z,3.85
2023-05-14T04:59:26.627Z,4.10
2023-05-14T05:02:29.128Z,4.15
2023-05-14T05:05:31.963Z,3.85
2023-05-14T05:08:34.476Z,4.00
2023-05-14T05:11:37.923Z,4.53
2023-05-14T05:14:40.468Z,3.97
2023-05-14T05:17:43.339Z,3.72
2023-05-14T05:20:45.850Z,3.97
2023-05-14T05:23:48.660Z,3.97
2023-05-14T05:26:51.936Z,3.80
2023-05-14T05:29:54.697Z,3.92
2023-05-14T05:32:57.690Z,4.07
2023-05-14T05:36:00.648Z,3.97
2023-05-14T05:39:03.176Z,4.47
2023-05-14T05:42:06.453Z,3.60
2023-05-14T05:45:09.340Z,4.22
2023-05-14T05:48:12.120Z,4.20
2023-05-14T05:51:14.594Z,4.50
2023-05-14T05:54:17.517Z,4.50
2023-05-14T05:57:19.904Z,4.60
2023-05-14T06:00:24.003Z,4.57
2023-05-14T06:03:28.402Z,4.60
2023-05-14T06:06:32.732Z,4.25
2023-05-14T06:09:35.550Z,4.40
2023-05-14T06:12:37.982Z,4.37
2023-05-14T06:15:40.710Z,4.20
2023-05-14T06:18:43.307Z,4.32
2023-05-14T06:21:46.154Z,4.50
2023-05-14T06:24:49.130Z,4.50
2023-05-14T06:27:51.863Z,4.40
2023-05-14T06:30:54.387Z,4.57
2023-05-14T06:33:57.205Z,4.55
2023-05-14T06:37:00.398Z,4.68
2023-05-14T06:40:03.708Z,4.37
2023-05-14T06:43:06.728Z,4.50
2023-05-14T06:46:09.634Z,4.35
2023-05-14T06:49:12.205Z,4.90
2023-05-14T06:52:15.183Z,5.53
2023-05-14T06:55:17.735Z,5.10
2023-05-14T06:58:20.547Z,4.95
2023-05-14T07:01:23.085Z,5.10
2023-05-14T07:04:26.272Z,4.85
2023-05-14T07:07:28.864Z,5.32
2023-05-14T07:10:32.138Z,4.90
2023-05-14T07:13:34.582Z,5.45
2023-05-14T07:16:37.461Z,5.80
2023-05-14T07:19:40.389Z,5.03
2023-05-14T07:22:43.150Z,4.90
2023-05-14T07:25:46.191Z,5.20
2023-05-14T07:28:48.994Z,4.80
2023-05-14T07:31:51.894Z,4.55
2023-05-14T07:34:54.827Z,4.53
2023-05-14T07:37:57.378Z,4.55
2023-05-14T07:41:00.789Z,4.55
2023-05-14T07:44:03.381Z,4.60
2023-05-14T07:47:07.900Z,4.55
2023-05-14T07:50:11.027Z,4.95
2023-05-14T07:53:13.860Z,4.07
2023-05-14T07:56:16.519Z,4.75
2023-05-14T07:59:20.365Z,4.93
2023-05-14T08:02:23.585Z,4.43
2023-05-14T08:05:26.722Z,4.25
2023-05-14T08:08:29.581Z,4.90
2023-05-14T08:11:32.341Z,4.35
2023-05-14T08:14:34.937Z,4.40
2023-05-14T08:17:37.794Z,4.20
2023-05-14T08:20:40.664Z,4.80
2023-05-14T08:23:43.950Z,4.80
2023-05-14T08:26:46.682Z,4.78
2023-05-14T08:29:53.384Z,4.57
2023-05-14T08:32:55.978Z,5.05
2023-05-14T08:36:00.517Z,5.07
2023-05-14T08:39:03.390Z,4.32
2023-05-14T08:42:07.852Z,5.20
2023-05-14T08:45:14.071Z,5.80
2023-05-14T08:48:19.430Z,5.28
2023-05-14T08:51:22.193Z,5.55
2023-05-14T08:54:27.072Z,5.82
2023-05-14T08:57:31.200Z,5.25
2023-05-14T09:00:34.421Z,5.35
2023-05-14T09:03:37.666Z,5.22
2023-05-14T09:06:42.134Z,5.65
2023-05-14T09:09:45.936Z,4.95
2023-05-14T09:12:48.782Z,5.72
2023-05-14T09:15:52.027Z,5.60
2023-05-14T09:18:55.209Z,5.10
2023-05-14T09:21:59.216Z,5.43
2023-05-14T09:25:07.086Z,6.20
2023-05-14T09:28:09.711Z,5.43
2023-05-14T09:31:13.440Z,5.75
2023-05-14T09:34:25.390Z,5.60
2023-05-14T09:37:28.738Z,5.18
2023-05-14T09:40:31.235Z,5.62
2023-05-14T09:43:34.029Z,5.70
2023-05-14T09:46:36.736Z,5.82
2023-05-14T09:49:40.175Z,6.30
2023-05-14T09:52:42.774Z,6.25
2023-05-14T09:55:45.701Z,5.93
2023-05-14T09:58:48.490Z,6.32
2023-05-14T10:01:52.361Z,6.00
2023-05-14T10:04:58.930Z,5.72
2023-05-14T10:08:06.133Z,6.22
2023-05-14T10:11:14.398Z,6.55
2023-05-14T10:14:55.956Z,6.75
2023-05-14T10:18:05.375Z,6.65
2023-05-14T10:21:09.884Z,6.97
2023-05-14T10:24:14.449Z,6.30
2023-05-14T10:27:17.467Z,6.50
2023-05-14T10:30:24.023Z,6.82
2023-05-14T10:33:38.167Z,6.70
2023-05-14T10:36:43.717Z,7.22
2023-05-14T10:40:06.478Z,7.05
2023-05-14T10:43:11.318Z,6.62
2023-05-14T10:46:14.652Z,6.82
2023-05-14T10:49:28.261Z,7.07
2023-05-14T10:52:42.389Z,7.40
2023-05-14T10:55:45.943Z,6.62
2023-05-14T10:58:50.091Z,7.10
2023-05-14T11:01:53.308Z,7.30
2023-05-14T11:05:10.688Z,6.85
2023-05-14T11:08:14.868Z,6.57
2023-05-14T11:11:19.213Z,6.68
2023-05-14T11:14:22.835Z,6.78
2023-05-14T11:17:29.481Z,7.60
2023-05-14T11:20:32.838Z,7.57
2023-05-14T11:23:35.313Z,7.28
2023-05-14T11:26:38.266Z,7.68
2023-05-14T11:29:45.159Z,8.07
2023-05-14T11:32:49.900Z,8.48
2023-05-14T11:35:52.467Z,8.32
2023-05-14T11:38:55.230Z,8.45
2023-05-14T11:41:58.732Z,8.82
2023-05-14T11:45:01.673Z,8.70
2023-05-14T11:48:12.084Z,9.88
2023-05-14T11:51:15.090Z,9.43
2023-05-14T11:54:17.582Z,7.70
2023-05-14T11:57:21.560Z,7.68
2023-05-14T12:00:25.226Z,7.70
2023-05-14T12:03:30.637Z,7.50
2023-05-14T12:06:33.594Z,7.05
2023-05-14T12:09:43.032Z,7.68
2023-05-14T12:12:48.969Z,7.37
2023-05-14T12:15:57.551Z,7.50
2023-05-14T12:19:02.611Z,6.80
2023-05-14T12:22:06.096Z,7.70
2023-05-14T12:25:15.678Z,7.40
2023-05-14T12:28:20.030Z,7.82
2023-05-14T12:31:33.361Z,7.00
2023-05-14T12:34:39.098Z,7.45
2023-05-14T12:37:42.780Z,7.45
2023-05-14T12:40:45.778Z,8.80
2023-05-14T12:43:49.409Z,8.25
2023-05-14T12:46:52.482Z,8.25
2023-05-14T12:49:55.007Z,8.18
2023-05-14T12:52:57.901Z,8.60
2023-05-14T12:56:00.386Z,8.00
2023-05-14T12:59:03.142Z,8.77
2023-05-14T13:02:05.740Z,8.35
2023-05-14T13:05:08.762Z,8.63
2023-05-14T13:08:11.241Z,8.68
2023-05-14T13:11:14.110Z,8.77
2023-05-14T13:14:17.852Z,9.00
2023-05-14T13:17:21.829Z,8.60
2023-05-14T13:20:25.706Z,9.60
2023-05-14T13:23:28.536Z,8.73
2023-05-14T13:26:32.248Z,9.38
2023-05-14T13:29:35.215Z,9.27
2023-05-14T13:32:38.548Z,9.00
2023-05-14T13:35:42.438Z,9.02
2023-05-14T13:38:48.486Z,7.93
2023-05-14T13:41:51.580Z,8.38
2023-05-14T13:44:54.155Z,8.65
2023-05-14T13:47:56.987Z,8.65
2023-05-14T13:50:59.524Z,8.70
2023-05-14T13:54:02.334Z,8.07
2023-05-14T13:57:05.616Z,7.97
2023-05-14T14:00:09.587Z,8.77
2023-05-14T14:03:12.573Z,9.75
2023-05-14T14:06:17.387Z,8.98
2023-05-14T14:09:20.104Z,9.52
2023-05-14T14:12:22.716Z,9.50
2023-05-14T14:15:25.737Z,8.70
2023-05-14T14:18:28.377Z,9.27
2023-05-14T14:21:31.805Z,9.82
2023-05-14T14:24:34.400Z,9.77
2023-05-14T14:27:38.802Z,10.40
2023-05-14T14:30:41.631Z,10.00
2023-05-14T14:33:44.392Z,9.57
2023-05-14T14:36:46.826Z,8.80
2023-05-14T14:39:51.721Z,8.43
2023-05-14T14:42:54.362Z,9.07
2023-05-14T14:45:57.221Z,8.50
2023-05-14T14:48:59.678Z,7.05
2023-05-14T14:52:02.503Z,6.37
2023-05-14T14:55:05.648Z,7.95
2023-05-14T14:58:08.459Z,6.70
2023-05-14T15:01:11.110Z,6.55
2023-05-14T15:04:17.432Z,5.50
2023-05-14T15:07:20.565Z,4.90
2023-05-14T15:10:23.514Z,6.68
2023-05-14T15:13:27.015Z,6.87
2023-05-14T15:16:29.865Z,5.00
2023-05-14T15:19:32.424Z,4.75
2023-05-14T15:22:35.342Z,4.75
2023-05-14T15:25:37.929Z,5.30
2023-05-14T15:28:40.822Z,5.47
2023-05-14T15:31:44.991Z,5.70
2023-05-14T15:34:47.817Z,4.87
2023-05-14T15:37:50.417Z,5.70
2023-05-14T15:40:53.341Z,5.43
2023-05-14T15:43:56.457Z,5.87
2023-05-14T15:46:59.193Z,5.50
2023-05-14T15:50:02.363Z,5.15
2023-05-14T15:53:05.283Z,6.80
2023-05-14T15:56:07.955Z,5.78
2023-05-14T15:59:10.775Z,5.72
2023-05-14T16:02:14.533Z,6.32
2023-05-14T16:05:17.459Z,6.15
2023-05-14T16:08:19.969Z,5.22
2023-05-14T16:11:22.838Z,5.82
2023-05-14T16:14:25.339Z,6.18
2023-05-14T16:17:28.602Z,4.80
2023-05-14T16:20:31.076Z,6.03
2023-05-14T16:23:33.848Z,5.65
2023-05-14T16:26:36.498Z,5.72
2023-05-14T16:29:39.349Z,4.90
2023-05-14T16:32:42.185Z,4.90
2023-05-14T16:35:45.549Z,4.55
2023-05-14T16:39:06.078Z,4.87
2023-05-14T16:42:10.663Z,4.50
2023-05-14T16:45:13.409Z,4.45
2023-05-14T16:48:16.251Z,4.45
2023-05-14T16:51:18.845Z,4.50
2023-05-14T16:54:21.725Z,4.12
2023-05-14T16:57:24.287Z,4.00
2023-05-14T17:00:27.047Z,3.70
2023-05-14T17:03:29.578Z,5.37
2023-05-14T17:06:32.459Z,4.28
2023-05-14T17:09:34.995Z,4.20
2023-05-14T17:12:37.948Z,4.30
2023-05-14T17:15:41.964Z,4.40
2023-05-14T17:18:45.744Z,4.43
2023-05-14T17:21:48.388Z,3.90
2023-05-14T17:24:51.113Z,3.95
2023-05-14T17:27:53.583Z,4.07
2023-05-14T17:30:56.974Z,4.22
2023-05-14T17:33:59.449Z,4.70
2023-05-14T17:37:02.249Z,4.80
2023-05-14T17:40:05.639Z,4.68
2023-05-14T17:43:08.591Z,4.45
2023-05-14T17:46:11.196Z,5.68
2023-05-14T17:49:14.066Z,5.05
2023-05-14T17:52:16.813Z,5.80
2023-05-14T17:55:19.710Z,5.80
2023-05-14T17:58:22.265Z,6.15
2023-05-14T18:01:25.277Z,6.32
2023-05-14T18:04:28.299Z,6.20
2023-05-14T18:07:31.096Z,6.40
2023-05-14T18:10:34.328Z,6.00
2023-05-14T18:13:37.038Z,6.05
2023-05-14T18:16:40.299Z,6.40
2023-05-14T18:19:43.100Z,6.25
2023-05-14T18:22:46.220Z,6.20
2023-05-14T18:25:49.464Z,5.75
2023-05-14T18:28:52.740Z,6.32
2023-05-14T18:31:55.677Z,6.78
2023-05-14T18:34:58.879Z,6.85
2023-05-14T18:38:02.804Z,6.97
2023-05-14T18:41:06.077Z,7.72
2023-05-14T18:44:09.067Z,6.97
2023-05-14T18:47:13.315Z,6.70
2023-05-14T18:50:16.333Z,6.43
2023-05-14T18:53:19.583Z,6.03
2023-05-14T18:56:22.512Z,6.97
2023-05-14T18:59:25.760Z,8.27
2023-05-14T19:02:29.259Z,6.90
2023-05-14T19:05:32.618Z,8.95
2023-05-14T19:08:35.864Z,7.22
2023-05-14T19:11:39.598Z,8.48
2023-05-14T19:14:42.498Z,7.60
2023-05-14T19:17:45.785Z,8.02
2023-05-14T19:20:48.881Z,8.00
2023-05-14T19:23:52.110Z,7.25
2023-05-14T19:26:54.993Z,7.95
2023-05-14T19:29:58.158Z,8.27
2023-05-14T19:33:01.503Z,8.52
2023-05-14T19:36:05.325Z,8.30
2023-05-14T19:39:08.263Z,10.02
2023-05-14T19:42:11.485Z,8.60
2023-05-14T19:45:15.064Z,9.07
2023-05-14T19:48:19.356Z,11.27
2023-05-14T19:51:22.244Z,8.60
2023-05-14T19:54:25.313Z,7.32
2023-05-14T19:57:28.072Z,7.70
2023-05-14T20:00:31.647Z,8.00
2023-05-14T20:03:35.624Z,9.73
2023-05-14T20:06:40.310Z,7.37
2023-05-14T20:09:43.305Z,8.63
2023-05-14T20:12:45.953Z,9.27
2023-05-14T20:15:48.835Z,7.37
2023-05-14T20:18:53.224Z,7.60
2023-05-14T20:21:56.469Z,5.55
2023-05-14T20:24:59.121Z,7.05
2023-05-14T20:28:01.970Z,7.10
2023-05-14T20:31:04.461Z,8.02
2023-05-14T20:34:07.233Z,6.68
2023-05-14T20:37:10.058Z,8.52
2023-05-14T20:40:12.898Z,7.03
2023-05-14T20:43:15.465Z,6.20
2023-05-14T20:46:18.280Z,7.15
2023-05-14T20:49:20.823Z,6.30
2023-05-14T20:52:23.671Z,7.95
2023-05-14T20:55:26.583Z,8.35
2023-05-14T20:58:29.587Z,6.45
2023-05-14T21:01:32.317Z,7.22
2023-05-14T21:04:35.395Z,6.70
2023-05-14T21:07:39.371Z,6.87
2023-05-14T21:10:42.223Z,7.03
2023-05-14T21:13:44.698Z,7.82
2023-05-14T21:16:47.863Z,7.22
2023-05-14T21:19:50.423Z,9.45
2023-05-14T21:22:53.187Z,7.53
2023-05-14T21:25:55.832Z,7.20
2023-05-14T21:28:59.273Z,7.05
2023-05-14T21:32:01.780Z,7.55
2023-05-14T21:35:05.393Z,7.00
2023-05-14T21:38:08.986Z,7.87
2023-05-14T21:41:11.783Z,7.57
2023-05-14T21:44:14.228Z,6.72
2023-05-14T21:47:17.199Z,6.20
2023-05-14T21:50:19.757Z,6.40
2023-05-14T21:53:22.527Z,6.00
2023-05-14T21:56:25.105Z,5.90
2023-05-14T21:59:27.981Z,6.65
2023-05-14T22:02:31.217Z,5.05
2023-05-14T22:05:34.044Z,5.20
2023-05-14T22:08:36.555Z,5.65
2023-05-14T22:11:39.237Z,5.03
2023-05-14T22:14:41.943Z,5.53
2023-05-14T22:17:44.739Z,4.70
2023-05-14T22:20:47.227Z,4.78
2023-05-14T22:23:50.365Z,4.80
2023-05-14T22:26:52.949Z,5.22
2023-05-14T22:29:55.702Z,4.97
2023-05-14T22:32:58.216Z,6.62
2023-05-14T22:36:01.136Z,5.12
2023-05-14T22:39:03.613Z,5.00
2023-05-14T22:42:06.403Z,4.90
2023-05-14T22:45:09.367Z,5.25
2023-05-14T22:48:12.119Z,5.18
2023-05-14T22:51:15.867Z,5.40
2023-05-14T22:54:18.650Z,5.55
2023-05-14T22:57:21.122Z,6.47
2023-05-14T23:00:24.147Z,6.05
2023-05-14T23:03:26.697Z,6.90
2023-05-14T23:06:30.140Z,6.65
2023-05-14T23:09:32.618Z,7.03
2023-05-14T23:12:35.436Z,6.97
2023-05-14T23:15:38.792Z,7.35
2023-05-14T23:18:41.815Z,5.93
2023-05-14T23:21:44.476Z,6.43
2023-05-14T23:24:47.193Z,6.93
2023-05-14T23:27:50.053Z,7.53
2023-05-14T23:30:52.788Z,6.75
2023-05-14T23:33:56.889Z,6.78
2023-05-14T23:36:59.846Z,6.72
2023-05-14T23:40:02.516Z,7.20
2023-05-14T23:43:05.332Z,8.05
2023-05-14T23:46:08.805Z,7.40
2023-05-14T23:49:12.441Z,8.63
2023-05-14T23:52:14.984Z,8.07
2023-05-14T23:55:17.856Z,7.75
2023-05-14T23:58:20.432Z,8.43
